createdAt,value
2022-08-17T00:01:52.030Z,6.70
2022-08-17T00:04:27.862Z,7.90
2022-08-17T00:07:02.778Z,6.87
2022-08-17T00:09:38.315Z,7.40
2022-08-17T00:12:40.538Z,7.40
2022-08-17T00:15:10.574Z,5.90
2022-08-17T00:17:49.197Z,6.87
2022-08-17T00:20:34.990Z,7.40
2022-08-17T00:23:15.201Z,6.90
2022-08-17T00:25:51.054Z,7.47
2022-08-17T00:28:26.413Z,7.17
2022-08-17T00:31:08.977Z,7.07
2022-08-17T00:33:45.467Z,7.00
2022-08-17T00:36:21.274Z,7.33
2022-08-17T00:38:56.383Z,7.60
2022-08-17T00:41:35.666Z,7.83
2022-08-17T00:44:12.021Z,8.33
2022-08-17T00:46:47.976Z,7.70
2022-08-17T00:49:25.094Z,6.40
2022-08-17T00:52:11.880Z,7.30
2022-08-17T00:54:52.321Z,6.80
2022-08-17T00:57:55.241Z,7.07
2022-08-17T01:00:38.434Z,8.03
2022-08-17T01:03:27.368Z,8.10
2022-08-17T01:06:04.470Z,7.57
2022-08-17T01:08:40.506Z,7.40
2022-08-17T01:11:15.489Z,8.10
2022-08-17T01:13:50.418Z,7.23
2022-08-17T01:16:29.323Z,6.67
2022-08-17T01:19:30.602Z,7.70
2022-08-17T01:22:16.860Z,9.30
2022-08-17T01:24:59.040Z,8.30
2022-08-17T01:27:36.133Z,7.40
2022-08-17T01:30:56.628Z,8.20
2022-08-17T01:33:11.436Z,7.40
2022-08-17T01:35:46.390Z,8.73
2022-08-17T01:38:27.108Z,7.50
2022-08-17T01:41:10.567Z,7.90
2022-08-17T01:43:55.013Z,7.10
2022-08-17T01:46:36.019Z,7.10
2022-08-17T01:49:12.791Z,7.87
2022-08-17T01:51:48.457Z,6.73
2022-08-17T01:54:25.370Z,7.63
2022-08-17T01:57:00.356Z,7.53
2022-08-17T01:59:35.709Z,8.03
2022-08-17T02:02:11.283Z,8.30
2022-08-17T02:05:07.452Z,8.83
2022-08-17T02:07:55.965Z,7.90
2022-08-17T02:10:35.919Z,8.00
2022-08-17T02:13:22.007Z,6.97
2022-08-17T02:15:57.816Z,8.07
2022-08-17T02:18:33.427Z,8.20
2022-08-17T02:21:09.295Z,7.60
2022-08-17T02:23:47.745Z,7.87
2022-08-17T02:26:23.831Z,7.53
2022-08-17T02:29:01.361Z,7.47
2022-08-17T02:31:36.313Z,8.33
2022-08-17T02:34:12.344Z,7.90
2022-08-17T02:36:47.662Z,7.83
2022-08-17T02:39:22.583Z,7.67
2022-08-17T02:42:02.991Z,7.70
2022-08-17T02:44:39.805Z,7.27
2022-08-17T02:47:15.415Z,7.70
2022-08-17T02:49:55.593Z,7.03
2022-08-17T02:52:42.399Z,6.60
2022-08-17T02:55:34.568Z,6.20
2022-08-17T02:58:11.509Z,7.27
2022-08-17T03:00:48.234Z,6.70
2022-08-17T03:03:23.190Z,7.20
2022-08-17T03:05:58.600Z,7.30
2022-08-17T03:08:34.551Z,6.87
2022-08-17T03:11:10.388Z,5.57
2022-08-17T03:13:45.824Z,7.37
2022-08-17T03:16:20.875Z,7.00
2022-08-17T03:18:55.913Z,6.90
2022-08-17T03:21:30.872Z,7.13
2022-08-17T03:24:08.878Z,6.97
2022-08-17T03:26:44.012Z,7.20
2022-08-17T03:29:19.305Z,6.73
2022-08-17T03:31:54.283Z,7.70
2022-08-17T03:34:29.234Z,8.40
2022-08-17T03:37:04.370Z,8.03
2022-08-17T03:39:39.389Z,7.27
2022-08-17T03:42:31.910Z,8.13
2022-08-17T03:45:15.444Z,7.60
2022-08-17T03:48:09.115Z,8.03
2022-08-17T03:51:02.680Z,7.27
2022-08-17T03:54:12.653Z,7.33
2022-08-17T03:57:03.575Z,7.10
2022-08-17T03:59:39.321Z,6.90
2022-08-17T04:02:22.352Z,7.43
2022-08-17T04:04:58.519Z,7.20
2022-08-17T04:07:33.521Z,7.53
2022-08-17T04:10:08.783Z,6.90
2022-08-17T04:12:54.629Z,6.20
2022-08-17T04:15:30.902Z,6.60
2022-08-17T04:18:07.613Z,6.80
2022-08-17T04:20:45.945Z,6.87
2022-08-17T04:23:20.921Z,7.20
2022-08-17T04:25:56.032Z,7.30
2022-08-17T04:28:31.039Z,7.97
2022-08-17T04:31:06.234Z,7.67
2022-08-17T04:33:45.845Z,8.27
2022-08-17T04:36:21.303Z,7.80
2022-08-17T04:38:58.236Z,7.00
2022-08-17T04:41:51.862Z,13.87
2022-08-17T04:44:27.261Z,13.10
2022-08-17T04:47:12.985Z,11.63
2022-08-17T04:49:48.353Z,8.23
2022-08-17T04:52:29.853Z,8.83
2022-08-17T04:55:19.046Z,8.57
2022-08-17T04:57:54.142Z,8.23
2022-08-17T05:00:29.173Z,7.50
2022-08-17T05:03:04.614Z,8.13
2022-08-17T05:05:49.403Z,9.00
2022-08-17T05:08:24.459Z,8.77
2022-08-17T05:11:00.291Z,7.90
2022-08-17T05:13:35.378Z,8.07
2022-08-17T05:16:11.385Z,8.30
2022-08-17T05:18:46.810Z,7.60
2022-08-17T05:21:23.729Z,8.67
2022-08-17T05:23:59.472Z,7.20
2022-08-17T05:26:36.416Z,9.10
2022-08-17T05:29:11.544Z,7.80
2022-08-17T05:31:46.596Z,7.80
2022-08-17T05:34:21.671Z,7.60
2022-08-17T05:36:56.590Z,7.33
2022-08-17T05:39:32.083Z,7.27
2022-08-17T05:42:07.121Z,7.67
2022-08-17T05:44:42.036Z,8.13
2022-08-17T05:47:18.320Z,7.33
2022-08-17T05:49:53.983Z,6.87
2022-08-17T05:52:56.098Z,6.90
2022-08-17T05:55:43.102Z,6.57
2022-08-17T05:58:34.825Z,7.20
2022-08-17T06:01:35.870Z,6.93
2022-08-17T06:04:32.382Z,6.30
2022-08-17T06:07:25.270Z,6.90
2022-08-17T06:10:18.682Z,6.80
2022-08-17T06:13:20.352Z,7.93
2022-08-17T06:16:33.465Z,8.23
2022-08-17T06:19:16.540Z,8.50
2022-08-17T06:21:54.968Z,10.00
2022-08-17T06:24:47.243Z,9.60
2022-08-17T06:27:37.655Z,9.50
2022-08-17T06:30:20.405Z,8.90
2022-08-17T06:33:02.862Z,10.70
2022-08-17T06:35:42.284Z,10.40
2022-08-17T06:38:57.294Z,10.30
2022-08-17T06:41:47.478Z,9.80
2022-08-17T06:44:49.900Z,8.87
2022-08-17T06:47:58.692Z,8.97
2022-08-17T06:51:00.380Z,8.60
2022-08-17T06:53:49.624Z,8.70
2022-08-17T06:56:53.104Z,8.10
2022-08-17T06:59:56.206Z,8.50
2022-08-17T07:03:02.204Z,6.77
2022-08-17T07:06:16.530Z,8.10
2022-08-17T07:09:29.876Z,6.50
2022-08-17T07:12:24.307Z,7.40
2022-08-17T07:15:19.562Z,6.43
2022-08-17T07:17:54.487Z,6.70
2022-08-17T07:20:31.340Z,7.50
2022-08-17T07:23:13.531Z,6.70
2022-08-17T07:25:50.285Z,6.20
2022-08-17T07:28:27.932Z,6.70
2022-08-17T07:31:04.858Z,6.93
2022-08-17T07:33:41.095Z,5.90
2022-08-17T07:36:29.964Z,6.60
2022-08-17T07:39:05.572Z,6.00
2022-08-17T07:41:57.543Z,5.70
2022-08-17T07:44:54.848Z,5.53
2022-08-17T07:47:48.353Z,6.43
2022-08-17T07:50:30.195Z,6.70
2022-08-17T07:53:24.558Z,6.67
2022-08-17T07:55:59.565Z,6.07
2022-08-17T07:58:34.525Z,5.60
2022-08-17T08:01:15.434Z,6.10
2022-08-17T08:03:52.884Z,5.87
2022-08-17T08:06:27.909Z,6.53
2022-08-17T08:09:02.968Z,5.53
2022-08-17T08:11:44.146Z,5.73
2022-08-17T08:14:38.239Z,6.00
2022-08-17T08:17:13.267Z,6.30
2022-08-17T08:19:48.288Z,6.17
2022-08-17T08:22:46.565Z,5.00
2022-08-17T08:25:50.888Z,5.90
2022-08-17T08:28:47.072Z,6.73
2022-08-17T08:31:49.370Z,7.00
2022-08-17T08:35:08.450Z,6.30
2022-08-17T08:37:56.232Z,6.40
2022-08-17T08:41:13.285Z,6.07
2022-08-17T08:44:00.740Z,6.20
2022-08-17T08:47:18.208Z,6.10
2022-08-17T08:50:40.242Z,4.97
2022-08-17T08:53:52.033Z,6.40
2022-08-17T08:57:21.480Z,5.47
2022-08-17T09:00:20.745Z,4.80
2022-08-17T09:02:58.594Z,5.47
2022-08-17T09:05:55.962Z,5.07
2022-08-17T09:09:15.402Z,5.40
2022-08-17T09:12:13.738Z,5.30
2022-08-17T09:15:01.228Z,5.80
2022-08-17T09:19:00.310Z,4.33
2022-08-17T09:21:14.323Z,4.40
2022-08-17T09:24:20.597Z,4.57
2022-08-17T09:27:13.395Z,4.20
2022-08-17T09:29:57.693Z,4.30
2022-08-17T09:32:49.847Z,4.30
2022-08-17T09:35:37.234Z,5.40
2022-08-17T09:39:08.910Z,5.17
2022-08-17T09:42:16.044Z,5.87
2022-08-17T09:45:07.154Z,5.20
2022-08-17T09:47:56.350Z,5.27
2022-08-17T09:51:05.172Z,6.20
2022-08-17T09:53:44.456Z,6.23
2022-08-17T09:56:23.981Z,6.40
2022-08-17T09:59:20.914Z,7.53
2022-08-17T10:02:51.213Z,7.97
2022-08-17T10:05:37.494Z,6.90
2022-08-17T10:08:22.852Z,7.73
2022-08-17T10:11:10.526Z,7.37
2022-08-17T10:14:36.263Z,8.10
2022-08-17T10:17:16.066Z,6.93
2022-08-17T10:20:20.859Z,4.20
2022-08-17T10:23:33.934Z,4.40
2022-08-17T10:26:17.341Z,5.67
2022-08-17T10:29:01.185Z,5.70
2022-08-17T10:31:46.430Z,7.50
2022-08-17T10:34:52.093Z,6.30
2022-08-17T10:37:35.900Z,7.40
2022-08-17T10:40:45.488Z,7.00
2022-08-17T10:43:35.883Z,7.60
2022-08-17T10:46:46.753Z,7.13
2022-08-17T10:49:21.617Z,6.30
2022-08-17T10:52:35.319Z,6.53
2022-08-17T10:55:17.858Z,5.50
2022-08-17T10:58:21.938Z,5.27
2022-08-17T11:00:58.706Z,4.90
2022-08-17T11:03:33.967Z,5.40
2022-08-17T11:06:37.797Z,5.60
2022-08-17T11:09:52.246Z,5.07
2022-08-17T11:12:46.288Z,5.53
2022-08-17T11:16:07.700Z,5.03
2022-08-17T11:19:14.221Z,5.30
2022-08-17T11:22:34.514Z,4.90
2022-08-17T11:25:22.722Z,4.87
2022-08-17T11:28:17.428Z,4.93
2022-08-17T11:30:59.687Z,5.20
2022-08-17T11:33:36.727Z,4.30
2022-08-17T11:36:49.414Z,5.23
2022-08-17T11:40:01.643Z,4.80
2022-08-17T11:43:21.381Z,4.10
2022-08-17T11:46:51.877Z,5.97
2022-08-17T11:50:19.188Z,4.80
2022-08-17T11:52:54.936Z,4.90
2022-08-17T11:55:38.489Z,4.90
2022-08-17T11:58:29.710Z,4.53
2022-08-17T12:01:09.697Z,4.80
2022-08-17T12:03:58.896Z,5.30
2022-08-17T12:06:50.250Z,4.70
2022-08-17T12:09:30.984Z,5.00
2022-08-17T12:12:15.411Z,4.80
2022-08-17T12:15:12.911Z,4.73
2022-08-17T12:17:57.045Z,5.23
2022-08-17T12:20:42.754Z,6.00
2022-08-17T12:23:38.036Z,5.23
2022-08-17T12:26:19.873Z,5.30
2022-08-17T12:29:04.329Z,5.77
2022-08-17T12:31:48.467Z,5.93
2022-08-17T12:34:29.689Z,5.20
2022-08-17T12:37:19.195Z,5.03
2022-08-17T12:40:01.077Z,5.10
2022-08-17T12:42:39.295Z,4.53
2022-08-17T12:45:29.662Z,5.13
2022-08-17T12:48:13.319Z,4.87
2022-08-17T12:50:51.309Z,5.50
2022-08-17T12:53:31.771Z,4.27
2022-08-17T12:56:12.007Z,4.60
2022-08-17T12:58:55.558Z,5.30
2022-08-17T13:01:34.960Z,5.40
2022-08-17T13:04:14.239Z,4.23
2022-08-17T13:06:51.810Z,4.30
2022-08-17T13:09:40.188Z,4.07
2022-08-17T13:12:31.943Z,4.30
2022-08-17T13:15:07.718Z,4.67
2022-08-17T13:17:43.129Z,4.30
2022-08-17T13:20:18.238Z,4.70
2022-08-17T13:22:57.234Z,4.20
2022-08-17T13:25:33.682Z,4.40
2022-08-17T13:28:18.941Z,4.17
2022-08-17T13:31:27.925Z,4.53
2022-08-17T13:34:19.209Z,4.20
2022-08-17T13:37:30.031Z,4.13
2022-08-17T13:40:30.138Z,3.80
2022-08-17T13:43:05.454Z,3.87
2022-08-17T13:45:50.864Z,3.37
2022-08-17T13:48:29.343Z,3.63
2022-08-17T13:51:33.777Z,3.80
2022-08-17T13:54:35.571Z,3.50
2022-08-17T13:57:22.551Z,3.30
2022-08-17T14:00:18.504Z,3.30
2022-08-17T14:02:53.552Z,3.17
2022-08-17T14:05:31.232Z,3.40
2022-08-17T14:08:07.510Z,2.87
2022-08-17T14:10:45.514Z,3.37
2022-08-17T14:13:21.181Z,3.30
2022-08-17T14:15:56.907Z,3.40
2022-08-17T14:18:57.076Z,3.10
2022-08-17T14:21:27.192Z,3.27
2022-08-17T14:24:02.363Z,2.90
2022-08-17T14:26:37.513Z,2.93
2022-08-17T14:29:15.533Z,2.93
2022-08-17T14:31:54.502Z,3.80
2022-08-17T14:34:30.404Z,2.90
2022-08-17T14:37:05.635Z,3.10
2022-08-17T14:39:40.619Z,3.10
2022-08-17T14:42:17.612Z,2.87
2022-08-17T14:44:54.985Z,2.90
2022-08-17T14:47:30.015Z,3.13
2022-08-17T14:50:09.559Z,3.00
2022-08-17T14:52:49.293Z,3.20
2022-08-17T14:55:24.369Z,3.10
2022-08-17T14:57:59.475Z,3.03
2022-08-17T15:00:35.118Z,3.00
2022-08-17T15:03:11.468Z,3.20
2022-08-17T15:05:46.812Z,2.83
2022-08-17T15:08:21.873Z,3.07
2022-08-17T15:10:56.921Z,3.07
2022-08-17T15:13:32.226Z,2.93
2022-08-17T15:16:08.691Z,2.93
2022-08-17T15:18:43.724Z,2.93
2022-08-17T15:21:18.767Z,3.13
2022-08-17T15:23:53.821Z,2.70
2022-08-17T15:26:29.061Z,3.60
2022-08-17T15:29:04.137Z,3.00
2022-08-17T15:31:39.414Z,3.20
2022-08-17T15:34:15.511Z,3.13
2022-08-17T15:36:50.605Z,3.43
2022-08-17T15:39:25.714Z,3.13
2022-08-17T15:42:03.443Z,3.10
2022-08-17T15:44:40.195Z,2.90
2022-08-17T15:47:17.586Z,3.20
2022-08-17T15:49:56.660Z,3.00
2022-08-17T15:52:40.068Z,2.60
2022-08-17T15:55:16.598Z,3.40
2022-08-17T15:57:53.270Z,3.30
2022-08-17T16:00:29.448Z,3.13
2022-08-17T16:03:44.716Z,3.80
2022-08-17T16:06:00.683Z,3.73
2022-08-17T16:08:36.821Z,3.73
2022-08-17T16:11:18.590Z,4.10
2022-08-17T16:13:55.047Z,3.27
2022-08-17T16:16:31.361Z,3.70
2022-08-17T16:19:06.404Z,3.37
2022-08-17T16:21:42.657Z,4.17
2022-08-17T16:24:18.184Z,3.10
2022-08-17T16:26:53.424Z,3.97
2022-08-17T16:29:28.893Z,4.10
2022-08-17T16:32:14.775Z,3.70
2022-08-17T16:34:49.984Z,3.17
2022-08-17T16:37:25.155Z,3.80
2022-08-17T16:40:00.590Z,4.40
2022-08-17T16:42:38.467Z,4.00
2022-08-17T16:45:20.862Z,4.40
2022-08-17T16:48:00.634Z,3.77
2022-08-17T16:50:37.135Z,3.80
2022-08-17T16:53:17.338Z,4.60
2022-08-17T16:55:53.469Z,4.80
2022-08-17T16:58:28.473Z,4.60
2022-08-17T17:01:03.727Z,4.10
2022-08-17T17:03:43.932Z,4.17
2022-08-17T17:06:50.493Z,4.63
2022-08-17T17:09:33.177Z,4.27
2022-08-17T17:12:18.421Z,4.53
2022-08-17T17:14:59.272Z,4.70
2022-08-17T17:17:37.745Z,4.90
2022-08-17T17:20:43.614Z,4.17
2022-08-17T17:23:33.843Z,5.20
2022-08-17T17:26:27.467Z,4.23
2022-08-17T17:29:18.282Z,4.17
2022-08-17T17:32:09.489Z,4.17
2022-08-17T17:34:50.857Z,4.53
2022-08-17T17:37:33.511Z,4.80
2022-08-17T17:40:38.607Z,4.87
2022-08-17T17:43:38.776Z,4.80
2022-08-17T17:46:33.257Z,4.50
2022-08-17T17:49:10.617Z,4.70
2022-08-17T17:52:06.525Z,5.20
2022-08-17T17:54:53.113Z,4.90
2022-08-17T17:58:18.229Z,5.10
2022-08-17T18:01:34.540Z,5.53
2022-08-17T18:04:31.867Z,4.73
2022-08-17T18:07:31.766Z,5.13
2022-08-17T18:10:30.412Z,5.30
2022-08-17T18:13:56.423Z,5.20
2022-08-17T18:16:32.892Z,5.40
2022-08-17T18:19:13.172Z,5.70
2022-08-17T18:22:00.706Z,5.60
2022-08-17T18:24:45.840Z,5.83
2022-08-17T18:27:38.483Z,6.53
2022-08-17T18:30:13.346Z,5.80
2022-08-17T18:32:48.399Z,6.00
2022-08-17T18:35:32.549Z,6.43
2022-08-17T18:38:37.071Z,5.87
2022-08-17T18:41:25.889Z,5.40
2022-08-17T18:44:31.304Z,6.00
2022-08-17T18:47:19.361Z,6.37
2022-08-17T18:49:58.615Z,6.20
2022-08-17T18:52:34.259Z,6.03
2022-08-17T18:55:24.667Z,7.03
2022-08-17T18:58:20.349Z,6.60
2022-08-17T19:00:55.473Z,6.37
2022-08-17T19:03:30.523Z,6.43
2022-08-17T19:06:25.626Z,6.57
2022-08-17T19:09:01.267Z,7.37
2022-08-17T19:11:36.779Z,6.80
2022-08-17T19:14:16.625Z,7.00
2022-08-17T19:17:09.088Z,6.87
2022-08-17T19:19:59.374Z,6.63
2022-08-17T19:23:03.040Z,6.10
2022-08-17T19:25:46.716Z,6.80
2022-08-17T19:28:23.944Z,6.70
2022-08-17T19:31:16.581Z,6.80
2022-08-17T19:33:52.020Z,8.00
2022-08-17T19:36:53.626Z,8.00
2022-08-17T19:40:06.707Z,7.27
2022-08-17T19:43:09.018Z,6.80
2022-08-17T19:46:01.639Z,7.00
2022-08-17T19:49:06.574Z,6.97
2022-08-17T19:51:55.843Z,7.50
2022-08-17T19:55:00.441Z,7.07
2022-08-17T19:58:28.125Z,7.20
2022-08-17T20:01:07.604Z,8.00
2022-08-17T20:04:09.650Z,7.03
2022-08-17T20:06:49.415Z,7.50
2022-08-17T20:09:37.069Z,6.93
2022-08-17T20:12:21.798Z,6.80
2022-08-17T20:15:24.688Z,7.63
2022-08-17T20:18:05.884Z,7.30
2022-08-17T20:21:06.618Z,7.67
2022-08-17T20:23:46.037Z,7.40
2022-08-17T20:26:55.602Z,6.80
2022-08-17T20:30:06.540Z,6.90
2022-08-17T20:32:58.026Z,6.97
2022-08-17T20:35:38.869Z,7.27
2022-08-17T20:38:43.933Z,6.17
2022-08-17T20:41:22.529Z,7.10
2022-08-17T20:43:58.992Z,7.00
2022-08-17T20:46:37.334Z,7.40
2022-08-17T20:49:52.127Z,6.87
2022-08-17T20:52:35.981Z,6.50
2022-08-17T20:55:33.843Z,6.53
2022-08-17T20:58:14.773Z,8.13
2022-08-17T21:00:58.924Z,7.70
2022-08-17T21:03:50.514Z,7.20
2022-08-17T21:06:26.679Z,7.70
2022-08-17T21:09:14.934Z,7.03
2022-08-17T21:12:04.211Z,8.30
2022-08-17T21:14:58.620Z,7.70
2022-08-17T21:18:28.088Z,7.03
2022-08-17T21:21:42.143Z,6.37
2022-08-17T21:25:04.562Z,6.87
2022-08-17T21:27:45.518Z,7.23
2022-08-17T21:30:46.920Z,7.27
2022-08-17T21:33:31.506Z,7.03
2022-08-17T21:36:12.370Z,7.60
2022-08-17T21:38:47.207Z,7.50
2022-08-17T21:41:31.054Z,7.43
2022-08-17T21:44:31.957Z,8.33
2022-08-17T21:47:29.429Z,8.67
2022-08-17T21:50:22.896Z,7.43
2022-08-17T21:53:01.161Z,8.03
2022-08-17T21:55:37.249Z,7.00
2022-08-17T21:58:32.690Z,6.93
2022-08-17T22:01:40.026Z,7.50
2022-08-17T22:04:40.650Z,7.90
2022-08-17T22:07:15.631Z,7.30
2022-08-17T22:09:50.578Z,7.60
2022-08-17T22:12:25.698Z,9.20
2022-08-17T22:15:09.629Z,7.50
2022-08-17T22:17:48.050Z,8.40
2022-08-17T22:20:23.091Z,6.77
2022-08-17T22:23:19.364Z,7.77
2022-08-17T22:26:03.233Z,6.13
2022-08-17T22:28:53.697Z,5.90
2022-08-17T22:31:54.621Z,5.53
2022-08-17T22:34:29.641Z,5.37
2022-08-17T22:37:29.037Z,5.20
2022-08-17T22:40:04.552Z,5.67
2022-08-17T22:42:48.628Z,5.20
2022-08-17T22:45:26.114Z,5.30
2022-08-17T22:48:02.001Z,4.80
2022-08-17T22:50:37.058Z,4.83
2022-08-17T22:53:40.652Z,5.10
2022-08-17T22:56:42.248Z,4.70
2022-08-17T22:59:51.019Z,4.07
2022-08-17T23:02:33.067Z,4.57
2022-08-17T23:05:13.224Z,4.03
2022-08-17T23:07:52.741Z,4.50
2022-08-17T23:10:28.562Z,4.47
2022-08-17T23:13:03.973Z,4.40
2022-08-17T23:15:41.152Z,4.77
2022-08-17T23:18:16.959Z,4.40
2022-08-17T23:20:51.981Z,5.30
2022-08-17T23:23:26.987Z,4.60
2022-08-17T23:26:02.057Z,6.20
2022-08-17T23:28:38.055Z,5.70
2022-08-17T23:31:16.964Z,4.73
2022-08-17T23:33:52.405Z,5.00
2022-08-17T23:36:28.247Z,4.87
2022-08-17T23:39:04.756Z,5.33
2022-08-17T23:41:40.070Z,6.03
2022-08-17T23:44:15.176Z,5.93
2022-08-17T23:46:54.163Z,5.70
2022-08-17T23:49:29.958Z,5.43
2022-08-17T23:52:09.814Z,6.37
2022-08-17T23:54:47.652Z,6.23
2022-08-17T23:57:33.539Z,5.60
